Naicam, Canada
Current Conditions -  °F | °C
As of 3:00 AM on Wednesday 28 Jan 2015 (Local Time) from CYBU Reporting Station
Light Snow Light Snow  
Wind Chill: -7°   Ceiling: 1600
Heat Index: 10°   Visibility: 1.2mi
Dew Point:   Wind: 17mph
Humidity: 85%   Direction: 20°NNE
Pressure: 30.02"   Gusts: NA
Location:  52.42°N, 104.5°W
Report Text: CYBU 280900Z AUTO 02015KT 1 1/4SM -SN OVC016 M12/M14 A3002 RMK SLP195
Loading
Personal Weather Stations






























Interactive Weather Map New forecast layout! Learn more

10-Day Weather Forecast

Advertisements
Track Severe Weather on mobile